sensor_id;sensor_type;location;lat;lon;timestamp;temperature;humidity
18101;DHT22;9177;49.156;8.142;2023-02-01T00:02:20;19.10;91.90
18101;DHT22;9177;49.156;8.142;2023-02-01T00:04:47;19.10;91.90
18101;DHT22;9177;49.156;8.142;2023-02-01T00:07:14;19.10;92.00
18101;DHT22;9177;49.156;8.142;2023-02-01T00:09:41;19.10;91.90
18101;DHT22;9177;49.156;8.142;2023-02-01T00:12:08;19.10;91.90
18101;DHT22;9177;49.156;8.142;2023-02-01T00:14:36;19.10;91.80
18101;DHT22;9177;49.156;8.142;2023-02-01T00:17:04;19.10;91.80
18101;DHT22;9177;49.156;8.142;2023-02-01T00:19:32;19.10;91.80
18101;DHT22;9177;49.156;8.142;2023-02-01T00:21:59;19.10;91.80
18101;DHT22;9177;49.156;8.142;2023-02-01T00:24:26;19.10;91.70
18101;DHT22;9177;49.156;8.142;2023-02-01T00:26:52;19.10;91.70
18101;DHT22;9177;49.156;8.142;2023-02-01T00:29:20;19.10;91.70
18101;DHT22;9177;49.156;8.142;2023-02-01T00:31:50;19.10;91.70
18101;DHT22;9177;49.156;8.142;2023-02-01T00:34:17;19.10;91.70
18101;DHT22;9177;49.156;8.142;2023-02-01T00:36:45;19.10;91.70
18101;DHT22;9177;49.156;8.142;2023-02-01T00:39:12;19.10;91.60
18101;DHT22;9177;49.156;8.142;2023-02-01T00:41:39;19.10;91.60
18101;DHT22;9177;49.156;8.142;2023-02-01T00:44:06;19.10;91.60
18101;DHT22;9177;49.156;8.142;2023-02-01T00:46:33;19.10;91.60
18101;DHT22;9177;49.156;8.142;2023-02-01T00:49:01;19.10;91.60
18101;DHT22;9177;49.156;8.142;2023-02-01T00:51:29;19.10;91.60
18101;DHT22;9177;49.156;8.142;2023-02-01T00:53:56;19.10;91.50
18101;DHT22;9177;49.156;8.142;2023-02-01T00:56:23;19.10;91.50
18101;DHT22;9177;49.156;8.142;2023-02-01T00:58:52;19.10;91.50
18101;DHT22;9177;49.156;8.142;2023-02-01T01:01:21;19.10;91.50
18101;DHT22;9177;49.156;8.142;2023-02-01T01:03:51;19.10;91.50
18101;DHT22;9177;49.156;8.142;2023-02-01T01:06:21;19.10;91.50
18101;DHT22;9177;49.156;8.142;2023-02-01T01:08:48;19.10;91.40
18101;DHT22;9177;49.156;8.142;2023-02-01T01:11:20;19.10;91.40
18101;DHT22;9177;49.156;8.142;2023-02-01T01:13:47;19.00;91.40
18101;DHT22;9177;49.156;8.142;2023-02-01T01:16:15;19.10;91.40
18101;DHT22;9177;49.156;8.142;2023-02-01T01:18:42;19.10;91.40
18101;DHT22;9177;49.156;8.142;2023-02-01T01:21:11;19.10;91.40
18101;DHT22;9177;49.156;8.142;2023-02-01T01:23:40;19.10;91.40
18101;DHT22;9177;49.156;8.142;2023-02-01T01:26:08;19.00;91.30
18101;DHT22;9177;49.156;8.142;2023-02-01T01:28:35;19.00;91.30
18101;DHT22;9177;49.156;8.142;2023-02-01T01:31:02;19.00;91.30
18101;DHT22;9177;49.156;8.142;2023-02-01T01:33:29;19.00;91.30
18101;DHT22;9177;49.156;8.142;2023-02-01T01:35:56;19.00;91.30
18101;DHT22;9177;49.156;8.142;2023-02-01T01:38:23;19.10;91.30
18101;DHT22;9177;49.156;8.142;2023-02-01T01:40:51;19.00;91.30
18101;DHT22;9177;49.156;8.142;2023-02-01T01:43:19;19.00;91.30
18101;DHT22;9177;49.156;8.142;2023-02-01T01:45:48;19.00;91.30
18101;DHT22;9177;49.156;8.142;2023-02-01T01:48:20;19.00;91.30
18101;DHT22;9177;49.156;8.142;2023-02-01T01:50:50;19.00;91.30
18101;DHT22;9177;49.156;8.142;2023-02-01T01:53:22;19.00;91.30
18101;DHT22;9177;49.156;8.142;2023-02-01T01:55:53;19.00;91.30
18101;DHT22;9177;49.156;8.142;2023-02-01T01:58:23;19.00;91.30
18101;DHT22;9177;49.156;8.142;2023-02-01T02:00:51;19.00;91.20
18101;DHT22;9177;49.156;8.142;2023-02-01T02:03:21;19.00;91.20
18101;DHT22;9177;49.156;8.142;2023-02-01T02:05:50;19.00;91.20
18101;DHT22;9177;49.156;8.142;2023-02-01T02:08:18;19.00;91.20
18101;DHT22;9177;49.156;8.142;2023-02-01T02:10:46;19.00;91.20
18101;DHT22;9177;49.156;8.142;2023-02-01T02:13:31;19.00;91.20
18101;DHT22;9177;49.156;8.142;2023-02-01T02:16:24;19.00;91.10
18101;DHT22;9177;49.156;8.142;2023-02-01T02:19:08;19.00;91.10
18101;DHT22;9177;49.156;8.142;2023-02-01T02:21:52;19.00;91.10
18101;DHT22;9177;49.156;8.142;2023-02-01T02:27:22;18.90;91.10
18101;DHT22;9177;49.156;8.142;2023-02-01T02:30:27;18.90;91.10
18101;DHT22;9177;49.156;8.142;2023-02-01T02:33:37;18.90;91.10
18101;DHT22;9177;49.156;8.142;2023-02-01T02:36:10;18.90;91.10
18101;DHT22;9177;49.156;8.142;2023-02-01T02:38:45;18.90;91.10
18101;DHT22;9177;49.156;8.142;2023-02-01T02:41:15;18.90;91.10
18101;DHT22;9177;49.156;8.142;2023-02-01T02:44:01;18.90;91.00
18101;DHT22;9177;49.156;8.142;2023-02-01T02:46:53;18.90;91.00
18101;DHT22;9177;49.156;8.142;2023-02-01T02:49:49;18.90;91.00
18101;DHT22;9177;49.156;8.142;2023-02-01T02:52:44;18.90;91.10
18101;DHT22;9177;49.156;8.142;2023-02-01T02:55:29;18.90;91.10
18101;DHT22;9177;49.156;8.142;2023-02-01T02:57:58;18.90;91.00
18101;DHT22;9177;49.156;8.142;2023-02-01T03:00:44;18.90;91.00
18101;DHT22;9177;49.156;8.142;2023-02-01T03:03:29;18.90;91.00
18101;DHT22;9177;49.156;8.142;2023-02-01T03:06:16;18.90;91.00
18101;DHT22;9177;49.156;8.142;2023-02-01T03:08:44;18.90;91.00
18101;DHT22;9177;49.156;8.142;2023-02-01T03:11:12;18.90;91.00
18101;DHT22;9177;49.156;8.142;2023-02-01T03:13:44;18.90;91.00
18101;DHT22;9177;49.156;8.142;2023-02-01T03:16:14;18.90;91.00
18101;DHT22;9177;49.156;8.142;2023-02-01T03:18:48;18.90;91.00
18101;DHT22;9177;49.156;8.142;2023-02-01T03:21:22;19.00;91.00
18101;DHT22;9177;49.156;8.142;2023-02-01T03:23:51;18.90;91.00
18101;DHT22;9177;49.156;8.142;2023-02-01T03:26:20;18.90;91.00
18101;DHT22;9177;49.156;8.142;2023-02-01T03:28:52;18.90;90.90
18101;DHT22;9177;49.156;8.142;2023-02-01T03:31:22;18.90;90.90
18101;DHT22;9177;49.156;8.142;2023-02-01T03:33:49;18.90;90.90
18101;DHT22;9177;49.156;8.142;2023-02-01T03:36:24;18.90;90.90
18101;DHT22;9177;49.156;8.142;2023-02-01T03:38:59;18.90;91.00
18101;DHT22;9177;49.156;8.142;2023-02-01T03:41:33;18.90;90.90
18101;DHT22;9177;49.156;8.142;2023-02-01T03:44:06;18.90;90.90
18101;DHT22;9177;49.156;8.142;2023-02-01T03:46:40;18.90;90.90
18101;DHT22;9177;49.156;8.142;2023-02-01T03:49:10;18.90;90.90
18101;DHT22;9177;49.156;8.142;2023-02-01T03:51:41;18.90;90.90
18101;DHT22;9177;49.156;8.142;2023-02-01T03:54:11;18.90;90.90
18101;DHT22;9177;49.156;8.142;2023-02-01T03:56:42;18.90;90.90
18101;DHT22;9177;49.156;8.142;2023-02-01T03:59:11;18.90;90.90
18101;DHT22;9177;49.156;8.142;2023-02-01T04:01:37;18.90;90.90
18101;DHT22;9177;49.156;8.142;2023-02-01T04:04:04;18.90;90.90
18101;DHT22;9177;49.156;8.142;2023-02-01T04:06:31;19.00;90.90
18101;DHT22;9177;49.156;8.142;2023-02-01T04:08:59;18.90;90.90
18101;DHT22;9177;49.156;8.142;2023-02-01T04:11:26;18.90;90.90
18101;DHT22;9177;49.156;8.142;2023-02-01T04:13:54;18.90;90.90
18101;DHT22;9177;49.156;8.142;2023-02-01T04:16:21;18.90;90.90
18101;DHT22;9177;49.156;8.142;2023-02-01T04:18:48;18.90;90.90
18101;DHT22;9177;49.156;8.142;2023-02-01T04:21:15;18.90;90.90
18101;DHT22;9177;49.156;8.142;2023-02-01T04:23:42;18.90;90.90
18101;DHT22;9177;49.156;8.142;2023-02-01T04:26:10;19.00;90.90
18101;DHT22;9177;49.156;8.142;2023-02-01T04:28:37;18.90;90.80
18101;DHT22;9177;49.156;8.142;2023-02-01T04:31:04;18.90;90.80
18101;DHT22;9177;49.156;8.142;2023-02-01T04:33:31;18.90;90.90
18101;DHT22;9177;49.156;8.142;2023-02-01T04:35:58;18.90;90.80
18101;DHT22;9177;49.156;8.142;2023-02-01T04:38:24;18.90;90.90
18101;DHT22;9177;49.156;8.142;2023-02-01T04:40:52;18.90;90.90
18101;DHT22;9177;49.156;8.142;2023-02-01T04:43:20;18.90;90.90
18101;DHT22;9177;49.156;8.142;2023-02-01T04:45:47;18.90;90.90
18101;DHT22;9177;49.156;8.142;2023-02-01T04:48:15;18.90;90.80
18101;DHT22;9177;49.156;8.142;2023-02-01T04:50:43;18.90;90.90
18101;DHT22;9177;49.156;8.142;2023-02-01T04:53:12;18.90;90.90
18101;DHT22;9177;49.156;8.142;2023-02-01T04:55:39;18.90;90.90
18101;DHT22;9177;49.156;8.142;2023-02-01T04:58:06;18.90;90.90
18101;DHT22;9177;49.156;8.142;2023-02-01T05:00:35;18.90;90.90
18101;DHT22;9177;49.156;8.142;2023-02-01T05:03:02;18.90;90.80
18101;DHT22;9177;49.156;8.142;2023-02-01T05:05:29;18.90;90.90
18101;DHT22;9177;49.156;8.142;2023-02-01T05:07:56;18.90;90.80
18101;DHT22;9177;49.156;8.142;2023-02-01T05:10:23;18.90;90.80
18101;DHT22;9177;49.156;8.142;2023-02-01T05:12:49;18.90;90.90
18101;DHT22;9177;49.156;8.142;2023-02-01T05:15:35;18.90;90.80
18101;DHT22;9177;49.156;8.142;2023-02-01T05:18:01;18.90;90.80
18101;DHT22;9177;49.156;8.142;2023-02-01T05:20:28;18.90;90.80
18101;DHT22;9177;49.156;8.142;2023-02-01T05:22:55;18.90;90.80
18101;DHT22;9177;49.156;8.142;2023-02-01T05:25:22;18.90;90.80
18101;DHT22;9177;49.156;8.142;2023-02-01T05:27:49;18.90;90.80
18101;DHT22;9177;49.156;8.142;2023-02-01T05:30:18;18.90;90.80
18101;DHT22;9177;49.156;8.142;2023-02-01T05:32:49;18.90;90.80
18101;DHT22;9177;49.156;8.142;2023-02-01T05:35:16;18.90;90.80
18101;DHT22;9177;49.156;8.142;2023-02-01T05:37:43;18.90;90.80
18101;DHT22;9177;49.156;8.142;2023-02-01T05:40:10;18.90;90.80
18101;DHT22;9177;49.156;8.142;2023-02-01T05:42:37;18.90;90.80
18101;DHT22;9177;49.156;8.142;2023-02-01T05:45:05;18.90;90.80
18101;DHT22;9177;49.156;8.142;2023-02-01T05:47:33;18.90;90.80
18101;DHT22;9177;49.156;8.142;2023-02-01T05:50:01;18.90;90.80
18101;DHT22;9177;49.156;8.142;2023-02-01T05:52:28;18.90;90.70
18101;DHT22;9177;49.156;8.142;2023-02-01T05:54:54;18.90;90.70
18101;DHT22;9177;49.156;8.142;2023-02-01T05:57:21;18.90;90.70
18101;DHT22;9177;49.156;8.142;2023-02-01T05:59:48;18.90;90.70
18101;DHT22;9177;49.156;8.142;2023-02-01T06:02:16;18.90;91.10
18101;DHT22;9177;49.156;8.142;2023-02-01T06:04:42;18.90;90.70
18101;DHT22;9177;49.156;8.142;2023-02-01T06:07:11;18.90;90.70
18101;DHT22;9177;49.156;8.142;2023-02-01T06:09:38;18.90;90.70
18101;DHT22;9177;49.156;8.142;2023-02-01T06:12:05;18.90;90.70
18101;DHT22;9177;49.156;8.142;2023-02-01T06:14:32;18.90;90.70
18101;DHT22;9177;49.156;8.142;2023-02-01T06:17:02;18.90;90.70
18101;DHT22;9177;49.156;8.142;2023-02-01T06:19:29;18.90;90.70
18101;DHT22;9177;49.156;8.142;2023-02-01T06:21:55;18.90;90.70
18101;DHT22;9177;49.156;8.142;2023-02-01T06:24:24;18.90;90.70
18101;DHT22;9177;49.156;8.142;2023-02-01T06:26:51;18.90;90.70
18101;DHT22;9177;49.156;8.142;2023-02-01T06:29:17;18.90;90.70
18101;DHT22;9177;49.156;8.142;2023-02-01T06:31:45;18.90;90.70
18101;DHT22;9177;49.156;8.142;2023-02-01T06:34:11;18.90;90.70
18101;DHT22;9177;49.156;8.142;2023-02-01T06:36:38;18.90;90.70
18101;DHT22;9177;49.156;8.142;2023-02-01T06:39:05;18.90;90.70
18101;DHT22;9177;49.156;8.142;2023-02-01T06:41:33;18.90;90.70
18101;DHT22;9177;49.156;8.142;2023-02-01T06:44:01;18.90;90.70
18101;DHT22;9177;49.156;8.142;2023-02-01T06:46:28;18.90;90.70
18101;DHT22;9177;49.156;8.142;2023-02-01T06:48:55;18.90;90.70
18101;DHT22;9177;49.156;8.142;2023-02-01T06:51:22;18.90;90.70
18101;DHT22;9177;49.156;8.142;2023-02-01T06:53:50;18.90;90.70
18101;DHT22;9177;49.156;8.142;2023-02-01T06:56:17;18.90;90.70
18101;DHT22;9177;49.156;8.142;2023-02-01T06:58:46;18.80;90.70
18101;DHT22;9177;49.156;8.142;2023-02-01T07:01:13;18.80;90.70
18101;DHT22;9177;49.156;8.142;2023-02-01T07:03:40;18.80;90.70
18101;DHT22;9177;49.156;8.142;2023-02-01T07:06:07;18.80;90.70
18101;DHT22;9177;49.156;8.142;2023-02-01T07:08:37;18.80;90.70
18101;DHT22;9177;49.156;8.142;2023-02-01T07:11:06;18.90;90.70
18101;DHT22;9177;49.156;8.142;2023-02-01T07:13:33;18.90;90.70
18101;DHT22;9177;49.156;8.142;2023-02-01T07:16:03;18.80;90.70
18101;DHT22;9177;49.156;8.142;2023-02-01T07:18:31;18.80;90.70
18101;DHT22;9177;49.156;8.142;2023-02-01T07:20:58;18.80;90.70
18101;DHT22;9177;49.156;8.142;2023-02-01T07:23:26;18.90;90.70
18101;DHT22;9177;49.156;8.142;2023-02-01T07:25:54;18.80;90.70
18101;DHT22;9177;49.156;8.142;2023-02-01T07:28:21;18.80;90.70
18101;DHT22;9177;49.156;8.142;2023-02-01T07:30:48;18.80;90.70
18101;DHT22;9177;49.156;8.142;2023-02-01T07:33:18;18.80;90.70
18101;DHT22;9177;49.156;8.142;2023-02-01T07:35:45;18.90;90.70
18101;DHT22;9177;49.156;8.142;2023-02-01T07:38:12;18.90;90.70
18101;DHT22;9177;49.156;8.142;2023-02-01T07:40:39;18.90;90.70
18101;DHT22;9177;49.156;8.142;2023-02-01T07:43:06;18.90;90.70
18101;DHT22;9177;49.156;8.142;2023-02-01T07:45:34;18.90;90.80
18101;DHT22;9177;49.156;8.142;2023-02-01T07:48:01;18.90;90.80
18101;DHT22;9177;49.156;8.142;2023-02-01T07:50:30;18.90;90.80
18101;DHT22;9177;49.156;8.142;2023-02-01T07:52:58;18.90;90.80
18101;DHT22;9177;49.156;8.142;2023-02-01T07:55:25;18.90;90.80
18101;DHT22;9177;49.156;8.142;2023-02-01T07:57:52;18.90;90.80
18101;DHT22;9177;49.156;8.142;2023-02-01T08:00:19;18.90;90.90
18101;DHT22;9177;49.156;8.142;2023-02-01T08:03:04;18.90;90.80
18101;DHT22;9177;49.156;8.142;2023-02-01T08:05:33;18.90;91.20
18101;DHT22;9177;49.156;8.142;2023-02-01T08:08:00;18.90;91.40
18101;DHT22;9177;49.156;8.142;2023-02-01T08:10:26;18.90;91.90
18101;DHT22;9177;49.156;8.142;2023-02-01T08:12:58;18.90;91.50
18101;DHT22;9177;49.156;8.142;2023-02-01T08:15:25;18.90;91.30
18101;DHT22;9177;49.156;8.142;2023-02-01T08:17:52;18.90;91.30
18101;DHT22;9177;49.156;8.142;2023-02-01T08:20:20;18.90;91.70
18101;DHT22;9177;49.156;8.142;2023-02-01T08:22:49;18.90;91.20
18101;DHT22;9177;49.156;8.142;2023-02-01T08:25:18;18.90;91.10
18101;DHT22;9177;49.156;8.142;2023-02-01T08:27:45;19.00;91.10
18101;DHT22;9177;49.156;8.142;2023-02-01T08:30:13;18.90;91.10
18101;DHT22;9177;49.156;8.142;2023-02-01T08:32:40;19.00;91.20
18101;DHT22;9177;49.156;8.142;2023-02-01T08:35:08;19.00;90.90
18101;DHT22;9177;49.156;8.142;2023-02-01T08:37:34;18.90;91.00
18101;DHT22;9177;49.156;8.142;2023-02-01T08:40:04;18.90;91.30
18101;DHT22;9177;49.156;8.142;2023-02-01T08:42:31;18.90;91.70
18101;DHT22;9177;49.156;8.142;2023-02-01T08:45:15;18.90;91.00
18101;DHT22;9177;49.156;8.142;2023-02-01T08:47:43;18.90;91.40
18101;DHT22;9177;49.156;8.142;2023-02-01T08:50:10;18.90;91.60
18101;DHT22;9177;49.156;8.142;2023-02-01T08:52:37;18.90;91.50
18101;DHT22;9177;49.156;8.142;2023-02-01T08:55:06;18.90;91.70
18101;DHT22;9177;49.156;8.142;2023-02-01T08:57:33;18.90;91.30
18101;DHT22;9177;49.156;8.142;2023-02-01T09:00:03;18.90;91.40
18101;DHT22;9177;49.156;8.142;2023-02-01T09:02:30;18.90;91.50
18101;DHT22;9177;49.156;8.142;2023-02-01T09:04:57;18.90;91.30
18101;DHT22;9177;49.156;8.142;2023-02-01T09:07:24;18.90;91.20
18101;DHT22;9177;49.156;8.142;2023-02-01T09:09:50;18.90;91.50
18101;DHT22;9177;49.156;8.142;2023-02-01T09:12:21;18.90;91.70
18101;DHT22;9177;49.156;8.142;2023-02-01T09:14:48;18.90;91.30
18101;DHT22;9177;49.156;8.142;2023-02-01T09:17:15;18.90;90.90
18101;DHT22;9177;49.156;8.142;2023-02-01T09:19:42;18.90;91.00
18101;DHT22;9177;49.156;8.142;2023-02-01T09:22:09;18.90;91.00
18101;DHT22;9177;49.156;8.142;2023-02-01T09:24:36;18.80;91.10
18101;DHT22;9177;49.156;8.142;2023-02-01T09:27:03;18.80;91.10
18101;DHT22;9177;49.156;8.142;2023-02-01T09:29:31;18.80;91.10
18101;DHT22;9177;49.156;8.142;2023-02-01T09:31:59;18.80;91.00
18101;DHT22;9177;49.156;8.142;2023-02-01T09:34:25;18.90;90.90
18101;DHT22;9177;49.156;8.142;2023-02-01T09:36:52;18.90;91.30
18101;DHT22;9177;49.156;8.142;2023-02-01T09:39:19;18.80;91.00
18101;DHT22;9177;49.156;8.142;2023-02-01T09:41:54;18.90;90.90
18101;DHT22;9177;49.156;8.142;2023-02-01T09:47:19;19.00;91.10
18101;DHT22;9177;49.156;8.142;2023-02-01T09:49:53;19.10;90.70
18101;DHT22;9177;49.156;8.142;2023-02-01T09:52:28;19.10;90.60
18101;DHT22;9177;49.156;8.142;2023-02-01T09:54:58;19.10;90.60
18101;DHT22;9177;49.156;8.142;2023-02-01T09:57:41;19.10;90.60
18101;DHT22;9177;49.156;8.142;2023-02-01T10:00:17;19.10;90.60
18101;DHT22;9177;49.156;8.142;2023-02-01T10:02:49;19.00;90.90
18101;DHT22;9177;49.156;8.142;2023-02-01T10:05:21;19.10;90.50
18101;DHT22;9177;49.156;8.142;2023-02-01T10:08:03;19.10;90.50
18101;DHT22;9177;49.156;8.142;2023-02-01T10:10:37;19.10;90.50
18101;DHT22;9177;49.156;8.142;2023-02-01T10:16:16;19.10;90.50
18101;DHT22;9177;49.156;8.142;2023-02-01T10:19:00;19.10;90.50
18101;DHT22;9177;49.156;8.142;2023-02-01T10:21:41;19.10;90.50
18101;DHT22;9177;49.156;8.142;2023-02-01T10:24:20;19.10;90.50
18101;DHT22;9177;49.156;8.142;2023-02-01T10:26:56;19.10;90.50
18101;DHT22;9177;49.156;8.142;2023-02-01T10:29:29;19.00;90.40
18101;DHT22;9177;49.156;8.142;2023-02-01T10:31:57;19.10;90.50
18101;DHT22;9177;49.156;8.142;2023-02-01T10:34:28;19.10;90.40
18101;DHT22;9177;49.156;8.142;2023-02-01T10:37:00;19.10;90.50
18101;DHT22;9177;49.156;8.142;2023-02-01T10:39:27;19.10;90.40
18101;DHT22;9177;49.156;8.142;2023-02-01T10:41:55;19.10;90.40
18101;DHT22;9177;49.156;8.142;2023-02-01T10:44:26;19.10;90.40
18101;DHT22;9177;49.156;8.142;2023-02-01T10:46:54;19.10;90.40
18101;DHT22;9177;49.156;8.142;2023-02-01T10:49:26;19.10;90.40
18101;DHT22;9177;49.156;8.142;2023-02-01T10:51:59;19.10;90.40
18101;DHT22;9177;49.156;8.142;2023-02-01T10:54:33;19.10;90.40
18101;DHT22;9177;49.156;8.142;2023-02-01T10:57:00;19.10;90.40
18101;DHT22;9177;49.156;8.142;2023-02-01T10:59:29;19.10;90.40
18101;DHT22;9177;49.156;8.142;2023-02-01T11:01:59;19.10;90.30
18101;DHT22;9177;49.156;8.142;2023-02-01T11:04:30;19.10;90.30
18101;DHT22;9177;49.156;8.142;2023-02-01T11:07:06;19.10;90.30
18101;DHT22;9177;49.156;8.142;2023-02-01T11:09:35;19.00;90.30
18101;DHT22;9177;49.156;8.142;2023-02-01T11:12:05;19.10;90.30
18101;DHT22;9177;49.156;8.142;2023-02-01T11:14:37;19.10;90.30
18101;DHT22;9177;49.156;8.142;2023-02-01T11:17:18;19.00;90.30
18101;DHT22;9177;49.156;8.142;2023-02-01T11:19:57;19.10;90.30
18101;DHT22;9177;49.156;8.142;2023-02-01T11:22:26;19.10;90.30
18101;DHT22;9177;49.156;8.142;2023-02-01T11:24:55;19.10;90.30
18101;DHT22;9177;49.156;8.142;2023-02-01T11:27:24;19.10;90.20
18101;DHT22;9177;49.156;8.142;2023-02-01T11:30:00;19.10;90.20
18101;DHT22;9177;49.156;8.142;2023-02-01T11:32:27;19.10;90.10
18101;DHT22;9177;49.156;8.142;2023-02-01T11:35:00;19.10;90.10
18101;DHT22;9177;49.156;8.142;2023-02-01T11:37:30;19.10;90.10
18101;DHT22;9177;49.156;8.142;2023-02-01T11:40:00;19.10;90.20
18101;DHT22;9177;49.156;8.142;2023-02-01T11:42:29;18.90;90.30
18101;DHT22;9177;49.156;8.142;2023-02-01T11:45:25;18.90;90.30
18101;DHT22;9177;49.156;8.142;2023-02-01T11:47:53;18.90;90.30
18101;DHT22;9177;49.156;8.142;2023-02-01T11:50:28;18.90;90.20
18101;DHT22;9177;49.156;8.142;2023-02-01T11:53:09;19.00;90.10
18101;DHT22;9177;49.156;8.142;2023-02-01T11:55:54;19.00;90.10
18101;DHT22;9177;49.156;8.142;2023-02-01T11:58:50;19.00;90.10
18101;DHT22;9177;49.156;8.142;2023-02-01T12:04:50;19.10;90.10
18101;DHT22;9177;49.156;8.142;2023-02-01T12:07:33;19.10;90.10
18101;DHT22;9177;49.156;8.142;2023-02-01T12:10:15;19.10;90.00
18101;DHT22;9177;49.156;8.142;2023-02-01T12:12:50;19.10;90.00
18101;DHT22;9177;49.156;8.142;2023-02-01T12:15:32;19.10;90.30
18101;DHT22;9177;49.156;8.142;2023-02-01T12:18:34;19.20;90.00
18101;DHT22;9177;49.156;8.142;2023-02-01T12:24:21;19.20;89.90
18101;DHT22;9177;49.156;8.142;2023-02-01T12:27:00;19.20;89.90
18101;DHT22;9177;49.156;8.142;2023-02-01T12:29:51;19.10;89.80
18101;DHT22;9177;49.156;8.142;2023-02-01T12:32:39;19.10;89.80
18101;DHT22;9177;49.156;8.142;2023-02-01T12:38:12;19.10;89.80
18101;DHT22;9177;49.156;8.142;2023-02-01T12:40:53;19.10;89.80
18101;DHT22;9177;49.156;8.142;2023-02-01T12:43:31;19.10;89.80
18101;DHT22;9177;49.156;8.142;2023-02-01T12:46:06;19.10;89.80
18101;DHT22;9177;49.156;8.142;2023-02-01T12:48:37;19.10;89.70
18101;DHT22;9177;49.156;8.142;2023-02-01T12:51:10;19.20;89.70
18101;DHT22;9177;49.156;8.142;2023-02-01T12:53:45;19.10;89.60
18101;DHT22;9177;49.156;8.142;2023-02-01T12:56:20;19.10;90.00
18101;DHT22;9177;49.156;8.142;2023-02-01T12:58:50;19.10;89.80
18101;DHT22;9177;49.156;8.142;2023-02-01T13:01:20;19.20;89.80
18101;DHT22;9177;49.156;8.142;2023-02-01T13:04:00;19.20;90.20
18101;DHT22;9177;49.156;8.142;2023-02-01T13:06:33;19.20;89.80
18101;DHT22;9177;49.156;8.142;2023-02-01T13:09:07;19.20;89.70
18101;DHT22;9177;49.156;8.142;2023-02-01T13:11:39;19.20;89.70
18101;DHT22;9177;49.156;8.142;2023-02-01T13:14:17;19.10;89.70
18101;DHT22;9177;49.156;8.142;2023-02-01T13:16:48;19.10;90.00
18101;DHT22;9177;49.156;8.142;2023-02-01T13:19:19;19.10;89.80
18101;DHT22;9177;49.156;8.142;2023-02-01T13:21:51;19.10;89.80
18101;DHT22;9177;49.156;8.142;2023-02-01T13:24:32;19.10;89.60
18101;DHT22;9177;49.156;8.142;2023-02-01T13:27:01;19.10;89.70
18101;DHT22;9177;49.156;8.142;2023-02-01T13:29:29;19.10;89.70
18101;DHT22;9177;49.156;8.142;2023-02-01T13:32:20;19.10;89.60
18101;DHT22;9177;49.156;8.142;2023-02-01T13:35:12;19.10;89.50
18101;DHT22;9177;49.156;8.142;2023-02-01T13:38:02;19.10;89.50
18101;DHT22;9177;49.156;8.142;2023-02-01T13:40:37;19.10;89.90
18101;DHT22;9177;49.156;8.142;2023-02-01T13:43:12;19.10;89.70
18101;DHT22;9177;49.156;8.142;2023-02-01T13:45:47;19.10;90.00
18101;DHT22;9177;49.156;8.142;2023-02-01T13:48:21;19.10;90.00
18101;DHT22;9177;49.156;8.142;2023-02-01T13:50:52;19.10;90.00
18101;DHT22;9177;49.156;8.142;2023-02-01T13:53:25;19.10;90.00
18101;DHT22;9177;49.156;8.142;2023-02-01T13:55:59;19.10;90.00
18101;DHT22;9177;49.156;8.142;2023-02-01T13:58:33;19.20;89.70
18101;DHT22;9177;49.156;8.142;2023-02-01T14:04:45;19.20;89.90
18101;DHT22;9177;49.156;8.142;2023-02-01T14:07:18;19.10;90.00
18101;DHT22;9177;49.156;8.142;2023-02-01T14:09:46;19.10;90.00
18101;DHT22;9177;49.156;8.142;2023-02-01T14:12:46;19.10;90.00
18101;DHT22;9177;49.156;8.142;2023-02-01T14:15:23;19.10;90.10
18101;DHT22;9177;49.156;8.142;2023-02-01T14:17:51;19.10;90.00
18101;DHT22;9177;49.156;8.142;2023-02-01T14:20:46;19.20;90.00
18101;DHT22;9177;49.156;8.142;2023-02-01T14:23:21;19.30;90.00
18101;DHT22;9177;49.156;8.142;2023-02-01T14:26:15;19.30;89.90
18101;DHT22;9177;49.156;8.142;2023-02-01T14:29:03;19.40;89.80
18101;DHT22;9177;49.156;8.142;2023-02-01T14:31:53;19.40;89.70
18101;DHT22;9177;49.156;8.142;2023-02-01T14:34:29;19.40;89.80
18101;DHT22;9177;49.156;8.142;2023-02-01T14:36:58;19.30;90.00
18101;DHT22;9177;49.156;8.142;2023-02-01T14:39:36;19.40;90.10
18101;DHT22;9177;49.156;8.142;2023-02-01T14:42:15;19.50;90.00
18101;DHT22;9177;49.156;8.142;2023-02-01T14:44:44;19.50;89.80
18101;DHT22;9177;49.156;8.142;2023-02-01T14:47:31;19.40;89.70
18101;DHT22;9177;49.156;8.142;2023-02-01T14:50:07;19.50;89.80
18101;DHT22;9177;49.156;8.142;2023-02-01T14:52:39;19.40;90.00
18101;DHT22;9177;49.156;8.142;2023-02-01T14:55:11;19.40;90.10
18101;DHT22;9177;49.156;8.142;2023-02-01T14:57:43;19.40;90.00
18101;DHT22;9177;49.156;8.142;2023-02-01T15:00:24;19.40;89.80
18101;DHT22;9177;49.156;8.142;2023-02-01T15:02:54;19.40;89.80
18101;DHT22;9177;49.156;8.142;2023-02-01T15:05:31;19.40;89.80
18101;DHT22;9177;49.156;8.142;2023-02-01T15:08:04;19.40;89.70
18101;DHT22;9177;49.156;8.142;2023-02-01T15:10:38;19.40;89.60
18101;DHT22;9177;49.156;8.142;2023-02-01T15:13:18;19.40;89.70
18101;DHT22;9177;49.156;8.142;2023-02-01T15:15:46;19.40;89.60
18101;DHT22;9177;49.156;8.142;2023-02-01T15:18:27;19.40;89.60
18101;DHT22;9177;49.156;8.142;2023-02-01T15:20:57;19.40;89.80
18101;DHT22;9177;49.156;8.142;2023-02-01T15:23:24;19.40;90.00
18101;DHT22;9177;49.156;8.142;2023-02-01T15:25:51;19.30;90.00
18101;DHT22;9177;49.156;8.142;2023-02-01T15:28:18;19.30;89.90
18101;DHT22;9177;49.156;8.142;2023-02-01T15:30:54;19.30;90.00
18101;DHT22;9177;49.156;8.142;2023-02-01T15:33:21;19.30;90.00
18101;DHT22;9177;49.156;8.142;2023-02-01T15:35:51;19.30;89.80
18101;DHT22;9177;49.156;8.142;2023-02-01T15:38:20;19.30;89.70
18101;DHT22;9177;49.156;8.142;2023-02-01T15:40:54;19.40;89.90
18101;DHT22;9177;49.156;8.142;2023-02-01T15:43:23;19.40;89.80
18101;DHT22;9177;49.156;8.142;2023-02-01T15:45:56;19.30;89.80
18101;DHT22;9177;49.156;8.142;2023-02-01T15:48:25;19.40;90.00
18101;DHT22;9177;49.156;8.142;2023-02-01T15:50:54;19.30;90.10
18101;DHT22;9177;49.156;8.142;2023-02-01T15:53:24;19.40;90.00
18101;DHT22;9177;49.156;8.142;2023-02-01T15:55:57;19.40;89.90
18101;DHT22;9177;49.156;8.142;2023-02-01T15:58:26;19.40;89.90
18101;DHT22;9177;49.156;8.142;2023-02-01T16:00:55;19.40;90.00
18101;DHT22;9177;49.156;8.142;2023-02-01T16:03:44;19.40;90.00
18101;DHT22;9177;49.156;8.142;2023-02-01T16:06:27;19.40;90.00
18101;DHT22;9177;49.156;8.142;2023-02-01T16:08:59;19.30;90.00
18101;DHT22;9177;49.156;8.142;2023-02-01T16:11:28;19.30;90.00
18101;DHT22;9177;49.156;8.142;2023-02-01T16:13:56;19.30;90.10
18101;DHT22;9177;49.156;8.142;2023-02-01T16:16:23;19.30;90.10
18101;DHT22;9177;49.156;8.142;2023-02-01T16:18:50;19.20;90.10
18101;DHT22;9177;49.156;8.142;2023-02-01T16:21:18;19.20;90.20
18101;DHT22;9177;49.156;8.142;2023-02-01T16:23:48;19.30;90.20
18101;DHT22;9177;49.156;8.142;2023-02-01T16:26:16;19.30;90.30
18101;DHT22;9177;49.156;8.142;2023-02-01T16:28:43;19.30;90.20
18101;DHT22;9177;49.156;8.142;2023-02-01T16:31:12;19.30;90.20
18101;DHT22;9177;49.156;8.142;2023-02-01T16:33:45;19.20;90.30
18101;DHT22;9177;49.156;8.142;2023-02-01T16:36:13;19.20;90.30